sensor_id;sensor_type;location;lat;lon;timestamp;P1;durP1;ratioP1;P2;durP2;ratioP2
33876;SDS011;20166;51.738;7.158;2024-02-26T00:00:56;3.17;;;2.00;;
33876;SDS011;20166;51.738;7.158;2024-02-26T00:03:42;2.10;;;1.60;;
33876;SDS011;20166;51.738;7.158;2024-02-26T00:06:30;3.20;;;1.90;;
33876;SDS011;20166;51.738;7.158;2024-02-26T00:09:18;5.97;;;1.70;;
33876;SDS011;20166;51.738;7.158;2024-02-26T00:12:05;2.23;;;2.03;;
33876;SDS011;20166;51.738;7.158;2024-02-26T00:14:52;2.17;;;1.97;;
33876;SDS011;20166;51.738;7.158;2024-02-26T00:17:39;3.50;;;2.17;;
33876;SDS011;20166;51.738;7.158;2024-02-26T00:20:25;2.30;;;1.97;;
33876;SDS011;20166;51.738;7.158;2024-02-26T00:23:13;2.77;;;2.23;;
33876;SDS011;20166;51.738;7.158;2024-02-26T00:26:02;2.13;;;1.93;;
33876;SDS011;20166;51.738;7.158;2024-02-26T00:28:49;2.87;;;2.20;;
33876;SDS011;20166;51.738;7.158;2024-02-26T00:31:36;2.70;;;2.13;;
33876;SDS011;20166;51.738;7.158;2024-02-26T00:34:22;3.67;;;2.10;;
33876;SDS011;20166;51.738;7.158;2024-02-26T00:37:09;2.10;;;1.90;;
33876;SDS011;20166;51.738;7.158;2024-02-26T00:39:55;2.07;;;1.80;;
33876;SDS011;20166;51.738;7.158;2024-02-26T00:42:43;2.27;;;2.03;;
33876;SDS011;20166;51.738;7.158;2024-02-26T00:45:31;1.90;;;1.70;;
33876;SDS011;20166;51.738;7.158;2024-02-26T00:48:18;2.00;;;1.80;;
33876;SDS011;20166;51.738;7.158;2024-02-26T00:51:05;1.60;;;1.50;;
33876;SDS011;20166;51.738;7.158;2024-02-26T00:53:53;2.83;;;2.23;;
33876;SDS011;20166;51.738;7.158;2024-02-26T00:56:40;1.90;;;1.67;;
33876;SDS011;20166;51.738;7.158;2024-02-26T00:59:28;1.90;;;1.70;;
33876;SDS011;20166;51.738;7.158;2024-02-26T01:02:14;2.10;;;1.90;;
33876;SDS011;20166;51.738;7.158;2024-02-26T01:05:01;4.33;;;1.90;;
33876;SDS011;20166;51.738;7.158;2024-02-26T01:07:48;2.23;;;2.03;;
33876;SDS011;20166;51.738;7.158;2024-02-26T01:10:34;3.43;;;1.80;;
33876;SDS011;20166;51.738;7.158;2024-02-26T01:13:21;2.10;;;1.77;;
33876;SDS011;20166;51.738;7.158;2024-02-26T01:16:08;2.63;;;1.50;;
33876;SDS011;20166;51.738;7.158;2024-02-26T01:18:55;2.73;;;2.43;;
33876;SDS011;20166;51.738;7.158;2024-02-26T01:21:42;2.13;;;1.93;;
33876;SDS011;20166;51.738;7.158;2024-02-26T01:24:29;1.73;;;1.63;;
33876;SDS011;20166;51.738;7.158;2024-02-26T01:27:15;2.13;;;1.93;;
33876;SDS011;20166;51.738;7.158;2024-02-26T01:30:02;1.93;;;1.40;;
33876;SDS011;20166;51.738;7.158;2024-02-26T01:32:50;1.80;;;1.70;;
33876;SDS011;20166;51.738;7.158;2024-02-26T01:35:37;2.53;;;2.33;;
33876;SDS011;20166;51.738;7.158;2024-02-26T01:38:24;2.53;;;2.23;;
33876;SDS011;20166;51.738;7.158;2024-02-26T01:41:10;1.83;;;1.70;;
33876;SDS011;20166;51.738;7.158;2024-02-26T01:43:56;2.30;;;1.87;;
33876;SDS011;20166;51.738;7.158;2024-02-26T01:46:43;2.67;;;2.00;;
33876;SDS011;20166;51.738;7.158;2024-02-26T01:49:31;1.80;;;1.70;;
33876;SDS011;20166;51.738;7.158;2024-02-26T01:52:18;2.50;;;2.30;;
33876;SDS011;20166;51.738;7.158;2024-02-26T01:55:04;2.17;;;1.90;;
33876;SDS011;20166;51.738;7.158;2024-02-26T01:57:51;1.90;;;1.80;;
33876;SDS011;20166;51.738;7.158;2024-02-26T02:00:39;2.10;;;1.90;;
33876;SDS011;20166;51.738;7.158;2024-02-26T02:03:26;1.73;;;1.63;;
33876;SDS011;20166;51.738;7.158;2024-02-26T02:06:14;2.90;;;2.13;;
33876;SDS011;20166;51.738;7.158;2024-02-26T02:09:02;2.13;;;1.60;;
33876;SDS011;20166;51.738;7.158;2024-02-26T02:11:51;3.17;;;2.17;;
33876;SDS011;20166;51.738;7.158;2024-02-26T02:14:38;3.43;;;2.00;;
33876;SDS011;20166;51.738;7.158;2024-02-26T02:17:24;1.93;;;1.63;;
33876;SDS011;20166;51.738;7.158;2024-02-26T02:20:14;2.67;;;2.30;;
33876;SDS011;20166;51.738;7.158;2024-02-26T02:23:03;2.13;;;1.93;;
33876;SDS011;20166;51.738;7.158;2024-02-26T02:25:49;1.97;;;1.80;;
33876;SDS011;20166;51.738;7.158;2024-02-26T02:28:36;1.67;;;1.50;;
33876;SDS011;20166;51.738;7.158;2024-02-26T02:31:22;1.97;;;1.83;;
33876;SDS011;20166;51.738;7.158;2024-02-26T02:34:09;1.73;;;1.63;;
33876;SDS011;20166;51.738;7.158;2024-02-26T02:36:56;2.30;;;2.10;;
33876;SDS011;20166;51.738;7.158;2024-02-26T02:39:43;2.27;;;1.80;;
33876;SDS011;20166;51.738;7.158;2024-02-26T02:42:30;2.10;;;1.87;;
33876;SDS011;20166;51.738;7.158;2024-02-26T02:45:16;2.57;;;2.23;;
33876;SDS011;20166;51.738;7.158;2024-02-26T02:48:03;2.43;;;1.70;;
33876;SDS011;20166;51.738;7.158;2024-02-26T02:50:50;1.93;;;1.73;;
33876;SDS011;20166;51.738;7.158;2024-02-26T02:53:36;1.93;;;1.83;;
33876;SDS011;20166;51.738;7.158;2024-02-26T02:56:24;1.73;;;1.63;;
33876;SDS011;20166;51.738;7.158;2024-02-26T02:59:11;2.17;;;1.70;;
33876;SDS011;20166;51.738;7.158;2024-02-26T03:01:57;2.37;;;2.17;;
33876;SDS011;20166;51.738;7.158;2024-02-26T03:04:44;4.00;;;1.50;;
33876;SDS011;20166;51.738;7.158;2024-02-26T03:07:30;2.00;;;1.73;;
33876;SDS011;20166;51.738;7.158;2024-02-26T03:10:17;1.40;;;1.30;;
33876;SDS011;20166;51.738;7.158;2024-02-26T03:13:06;2.27;;;1.80;;
33876;SDS011;20166;51.738;7.158;2024-02-26T03:15:52;2.97;;;2.10;;
33876;SDS011;20166;51.738;7.158;2024-02-26T03:18:39;1.67;;;1.57;;
33876;SDS011;20166;51.738;7.158;2024-02-26T03:21:25;1.80;;;1.70;;
33876;SDS011;20166;51.738;7.158;2024-02-26T03:24:13;1.87;;;1.50;;
33876;SDS011;20166;51.738;7.158;2024-02-26T03:26:59;1.70;;;1.57;;
33876;SDS011;20166;51.738;7.158;2024-02-26T03:29:47;1.63;;;1.53;;
33876;SDS011;20166;51.738;7.158;2024-02-26T03:32:34;1.57;;;1.47;;
33876;SDS011;20166;51.738;7.158;2024-02-26T03:35:20;1.50;;;1.40;;
33876;SDS011;20166;51.738;7.158;2024-02-26T03:38:06;1.57;;;1.47;;
33876;SDS011;20166;51.738;7.158;2024-02-26T03:40:53;4.33;;;1.70;;
33876;SDS011;20166;51.738;7.158;2024-02-26T03:43:39;2.87;;;1.97;;
33876;SDS011;20166;51.738;7.158;2024-02-26T03:46:27;2.73;;;1.70;;
33876;SDS011;20166;51.738;7.158;2024-02-26T03:49:13;1.50;;;1.40;;
33876;SDS011;20166;51.738;7.158;2024-02-26T03:52:00;1.30;;;1.20;;
33876;SDS011;20166;51.738;7.158;2024-02-26T03:54:47;1.57;;;1.47;;
33876;SDS011;20166;51.738;7.158;2024-02-26T03:57:33;1.67;;;1.40;;
33876;SDS011;20166;51.738;7.158;2024-02-26T04:00:20;2.20;;;1.87;;
33876;SDS011;20166;51.738;7.158;2024-02-26T04:03:09;2.43;;;1.63;;
33876;SDS011;20166;51.738;7.158;2024-02-26T04:05:56;1.57;;;1.47;;
33876;SDS011;20166;51.738;7.158;2024-02-26T04:08:42;1.90;;;1.80;;
33876;SDS011;20166;51.738;7.158;2024-02-26T04:11:28;2.53;;;1.83;;
33876;SDS011;20166;51.738;7.158;2024-02-26T04:14:15;1.40;;;1.30;;
33876;SDS011;20166;51.738;7.158;2024-02-26T04:17:01;2.03;;;1.70;;
33876;SDS011;20166;51.738;7.158;2024-02-26T04:19:49;2.73;;;2.13;;
33876;SDS011;20166;51.738;7.158;2024-02-26T04:22:36;1.93;;;1.73;;
33876;SDS011;20166;51.738;7.158;2024-02-26T04:25:22;2.07;;;1.60;;
33876;SDS011;20166;51.738;7.158;2024-02-26T04:28:08;2.30;;;1.90;;
33876;SDS011;20166;51.738;7.158;2024-02-26T04:30:55;3.10;;;1.97;;
33876;SDS011;20166;51.738;7.158;2024-02-26T04:33:42;2.40;;;1.80;;
33876;SDS011;20166;51.738;7.158;2024-02-26T04:36:30;1.90;;;1.77;;
33876;SDS011;20166;51.738;7.158;2024-02-26T04:39:17;2.87;;;1.90;;
33876;SDS011;20166;51.738;7.158;2024-02-26T04:42:03;2.20;;;2.00;;
33876;SDS011;20166;51.738;7.158;2024-02-26T04:44:50;2.43;;;2.23;;
33876;SDS011;20166;51.738;7.158;2024-02-26T04:47:36;2.13;;;1.93;;
33876;SDS011;20166;51.738;7.158;2024-02-26T04:50:23;2.13;;;1.90;;
33876;SDS011;20166;51.738;7.158;2024-02-26T04:53:11;1.83;;;1.70;;
33876;SDS011;20166;51.738;7.158;2024-02-26T04:55:57;4.27;;;2.07;;
33876;SDS011;20166;51.738;7.158;2024-02-26T04:58:43;2.20;;;2.00;;
33876;SDS011;20166;51.738;7.158;2024-02-26T05:01:30;4.07;;;2.33;;
33876;SDS011;20166;51.738;7.158;2024-02-26T05:04:16;1.93;;;1.83;;
33876;SDS011;20166;51.738;7.158;2024-02-26T05:07:03;2.70;;;1.50;;
33876;SDS011;20166;51.738;7.158;2024-02-26T05:09:51;3.17;;;2.60;;
33876;SDS011;20166;51.738;7.158;2024-02-26T05:12:38;2.53;;;2.33;;
33876;SDS011;20166;51.738;7.158;2024-02-26T05:15:27;2.43;;;1.77;;
33876;SDS011;20166;51.738;7.158;2024-02-26T05:18:13;1.80;;;1.70;;
33876;SDS011;20166;51.738;7.158;2024-02-26T05:21:00;2.83;;;1.70;;
33876;SDS011;20166;51.738;7.158;2024-02-26T05:23:48;2.17;;;1.90;;
33876;SDS011;20166;51.738;7.158;2024-02-26T05:26:36;1.60;;;1.50;;
33876;SDS011;20166;51.738;7.158;2024-02-26T05:29:22;2.40;;;2.20;;
33876;SDS011;20166;51.738;7.158;2024-02-26T05:32:08;2.47;;;1.97;;
33876;SDS011;20166;51.738;7.158;2024-02-26T05:34:55;3.93;;;2.00;;
33876;SDS011;20166;51.738;7.158;2024-02-26T05:37:42;1.60;;;1.50;;
33876;SDS011;20166;51.738;7.158;2024-02-26T05:40:28;2.10;;;1.67;;
33876;SDS011;20166;51.738;7.158;2024-02-26T05:43:16;2.10;;;1.93;;
33876;SDS011;20166;51.738;7.158;2024-02-26T05:46:03;2.33;;;1.73;;
33876;SDS011;20166;51.738;7.158;2024-02-26T05:48:50;1.93;;;1.83;;
33876;SDS011;20166;51.738;7.158;2024-02-26T05:51:38;1.70;;;1.60;;
33876;SDS011;20166;51.738;7.158;2024-02-26T05:54:24;1.60;;;1.50;;
33876;SDS011;20166;51.738;7.158;2024-02-26T05:57:10;1.90;;;1.80;;
33876;SDS011;20166;51.738;7.158;2024-02-26T05:59:58;1.60;;;1.50;;
33876;SDS011;20166;51.738;7.158;2024-02-26T06:02:48;1.67;;;1.57;;
33876;SDS011;20166;51.738;7.158;2024-02-26T06:05:35;1.50;;;1.40;;
33876;SDS011;20166;51.738;7.158;2024-02-26T06:08:21;1.63;;;1.53;;
33876;SDS011;20166;51.738;7.158;2024-02-26T06:11:07;1.73;;;1.63;;
33876;SDS011;20166;51.738;7.158;2024-02-26T06:13:55;2.00;;;1.90;;
33876;SDS011;20166;51.738;7.158;2024-02-26T06:16:45;1.53;;;1.30;;
33876;SDS011;20166;51.738;7.158;2024-02-26T06:19:32;1.67;;;1.57;;
33876;SDS011;20166;51.738;7.158;2024-02-26T06:22:19;2.37;;;1.60;;
33876;SDS011;20166;51.738;7.158;2024-02-26T06:25:06;1.60;;;1.50;;
33876;SDS011;20166;51.738;7.158;2024-02-26T06:27:52;2.23;;;1.70;;
33876;SDS011;20166;51.738;7.158;2024-02-26T06:30:40;3.20;;;2.00;;
33876;SDS011;20166;51.738;7.158;2024-02-26T06:33:28;2.70;;;1.87;;
33876;SDS011;20166;51.738;7.158;2024-02-26T06:36:15;1.53;;;1.43;;
33876;SDS011;20166;51.738;7.158;2024-02-26T06:39:01;2.20;;;1.40;;
33876;SDS011;20166;51.738;7.158;2024-02-26T06:41:50;1.90;;;1.70;;
33876;SDS011;20166;51.738;7.158;2024-02-26T06:44:43;2.67;;;1.70;;
33876;SDS011;20166;51.738;7.158;2024-02-26T06:47:29;1.87;;;1.70;;
33876;SDS011;20166;51.738;7.158;2024-02-26T06:50:17;2.03;;;1.57;;
33876;SDS011;20166;51.738;7.158;2024-02-26T06:53:03;1.53;;;1.43;;
33876;SDS011;20166;51.738;7.158;2024-02-26T06:55:52;2.73;;;1.70;;
33876;SDS011;20166;51.738;7.158;2024-02-26T06:58:38;2.27;;;2.03;;
33876;SDS011;20166;51.738;7.158;2024-02-26T07:01:24;1.70;;;1.60;;
33876;SDS011;20166;51.738;7.158;2024-02-26T07:04:11;1.70;;;1.60;;
33876;SDS011;20166;51.738;7.158;2024-02-26T07:06:59;2.00;;;1.50;;
33876;SDS011;20166;51.738;7.158;2024-02-26T07:09:46;1.70;;;1.60;;
33876;SDS011;20166;51.738;7.158;2024-02-26T07:12:33;1.70;;;1.60;;
33876;SDS011;20166;51.738;7.158;2024-02-26T07:15:20;2.10;;;1.90;;
33876;SDS011;20166;51.738;7.158;2024-02-26T07:18:06;1.63;;;1.53;;
33876;SDS011;20166;51.738;7.158;2024-02-26T07:20:54;2.73;;;2.10;;
33876;SDS011;20166;51.738;7.158;2024-02-26T07:23:42;1.67;;;1.53;;
33876;SDS011;20166;51.738;7.158;2024-02-26T07:26:28;1.50;;;1.40;;
33876;SDS011;20166;51.738;7.158;2024-02-26T07:29:15;1.60;;;1.50;;
33876;SDS011;20166;51.738;7.158;2024-02-26T07:32:02;1.43;;;1.23;;
33876;SDS011;20166;51.738;7.158;2024-02-26T07:34:49;2.83;;;1.47;;
33876;SDS011;20166;51.738;7.158;2024-02-26T07:37:35;1.50;;;1.40;;
33876;SDS011;20166;51.738;7.158;2024-02-26T07:40:24;2.17;;;1.93;;
33876;SDS011;20166;51.738;7.158;2024-02-26T07:43:10;2.63;;;1.90;;
33876;SDS011;20166;51.738;7.158;2024-02-26T07:45:57;1.73;;;1.63;;
33876;SDS011;20166;51.738;7.158;2024-02-26T07:48:43;1.70;;;1.60;;
33876;SDS011;20166;51.738;7.158;2024-02-26T07:51:30;1.57;;;1.47;;
33876;SDS011;20166;51.738;7.158;2024-02-26T07:54:17;1.87;;;1.73;;
33876;SDS011;20166;51.738;7.158;2024-02-26T07:57:05;2.20;;;2.10;;
33876;SDS011;20166;51.738;7.158;2024-02-26T07:59:52;1.43;;;1.33;;
33876;SDS011;20166;51.738;7.158;2024-02-26T08:02:39;3.37;;;1.80;;
33876;SDS011;20166;51.738;7.158;2024-02-26T08:05:25;2.33;;;1.30;;
33876;SDS011;20166;51.738;7.158;2024-02-26T08:08:12;2.90;;;1.93;;
33876;SDS011;20166;51.738;7.158;2024-02-26T08:10:59;1.80;;;1.70;;
33876;SDS011;20166;51.738;7.158;2024-02-26T08:13:47;2.23;;;1.67;;
33876;SDS011;20166;51.738;7.158;2024-02-26T08:16:33;2.33;;;1.50;;
33876;SDS011;20166;51.738;7.158;2024-02-26T08:19:21;2.50;;;2.10;;
33876;SDS011;20166;51.738;7.158;2024-02-26T08:22:07;1.63;;;1.53;;
33876;SDS011;20166;51.738;7.158;2024-02-26T08:24:55;2.47;;;1.83;;
33876;SDS011;20166;51.738;7.158;2024-02-26T08:27:41;2.63;;;1.47;;
33876;SDS011;20166;51.738;7.158;2024-02-26T08:30:29;1.60;;;1.43;;
33876;SDS011;20166;51.738;7.158;2024-02-26T08:33:15;2.77;;;1.67;;
33876;SDS011;20166;51.738;7.158;2024-02-26T08:36:03;2.30;;;1.83;;
33876;SDS011;20166;51.738;7.158;2024-02-26T08:38:51;3.73;;;1.87;;
33876;SDS011;20166;51.738;7.158;2024-02-26T08:41:37;1.70;;;1.60;;
33876;SDS011;20166;51.738;7.158;2024-02-26T08:44:23;4.53;;;1.70;;
33876;SDS011;20166;51.738;7.158;2024-02-26T08:47:12;1.83;;;1.50;;
33876;SDS011;20166;51.738;7.158;2024-02-26T08:50:00;3.50;;;2.57;;
33876;SDS011;20166;51.738;7.158;2024-02-26T08:52:46;2.77;;;1.93;;
33876;SDS011;20166;51.738;7.158;2024-02-26T08:55:35;1.93;;;1.60;;
33876;SDS011;20166;51.738;7.158;2024-02-26T08:58:22;1.93;;;1.77;;
33876;SDS011;20166;51.738;7.158;2024-02-26T09:01:08;1.40;;;1.30;;
33876;SDS011;20166;51.738;7.158;2024-02-26T09:03:56;1.50;;;1.40;;
33876;SDS011;20166;51.738;7.158;2024-02-26T09:06:42;2.13;;;1.60;;
33876;SDS011;20166;51.738;7.158;2024-02-26T09:09:29;1.50;;;1.40;;
33876;SDS011;20166;51.738;7.158;2024-02-26T09:12:15;1.60;;;1.50;;
33876;SDS011;20166;51.738;7.158;2024-02-26T09:15:02;2.13;;;1.70;;
33876;SDS011;20166;51.738;7.158;2024-02-26T09:17:49;3.67;;;2.10;;
33876;SDS011;20166;51.738;7.158;2024-02-26T09:20:39;2.90;;;2.10;;
33876;SDS011;20166;51.738;7.158;2024-02-26T09:23:25;2.90;;;2.10;;
33876;SDS011;20166;51.738;7.158;2024-02-26T09:26:13;1.73;;;1.60;;
33876;SDS011;20166;51.738;7.158;2024-02-26T09:28:59;1.93;;;1.83;;
33876;SDS011;20166;51.738;7.158;2024-02-26T09:31:46;1.70;;;1.60;;
33876;SDS011;20166;51.738;7.158;2024-02-26T09:34:33;1.73;;;1.60;;
33876;SDS011;20166;51.738;7.158;2024-02-26T09:37:21;2.07;;;1.87;;
33876;SDS011;20166;51.738;7.158;2024-02-26T09:40:08;2.10;;;1.90;;
33876;SDS011;20166;51.738;7.158;2024-02-26T09:42:59;2.83;;;1.90;;
33876;SDS011;20166;51.738;7.158;2024-02-26T09:45:46;2.03;;;1.87;;
33876;SDS011;20166;51.738;7.158;2024-02-26T09:48:35;2.17;;;1.97;;
33876;SDS011;20166;51.738;7.158;2024-02-26T09:51:23;2.03;;;1.80;;
33876;SDS011;20166;51.738;7.158;2024-02-26T09:54:12;2.63;;;2.10;;
33876;SDS011;20166;51.738;7.158;2024-02-26T09:57:02;1.93;;;1.70;;
33876;SDS011;20166;51.738;7.158;2024-02-26T09:59:50;1.53;;;1.43;;
33876;SDS011;20166;51.738;7.158;2024-02-26T10:02:39;3.37;;;2.10;;
33876;SDS011;20166;51.738;7.158;2024-02-26T10:05:26;2.37;;;2.10;;
33876;SDS011;20166;51.738;7.158;2024-02-26T10:08:13;2.43;;;2.03;;
33876;SDS011;20166;51.738;7.158;2024-02-26T10:11:02;2.67;;;1.90;;
33876;SDS011;20166;51.738;7.158;2024-02-26T10:13:49;3.50;;;2.17;;
33876;SDS011;20166;51.738;7.158;2024-02-26T10:16:35;3.17;;;2.00;;
33876;SDS011;20166;51.738;7.158;2024-02-26T10:19:26;3.33;;;2.40;;
33876;SDS011;20166;51.738;7.158;2024-02-26T10:22:14;4.00;;;2.23;;
33876;SDS011;20166;51.738;7.158;2024-02-26T10:25:00;2.60;;;2.30;;
33876;SDS011;20166;51.738;7.158;2024-02-26T10:27:50;5.00;;;2.77;;
33876;SDS011;20166;51.738;7.158;2024-02-26T10:30:37;6.00;;;3.50;;
33876;SDS011;20166;51.738;7.158;2024-02-26T10:33:23;3.43;;;2.60;;
33876;SDS011;20166;51.738;7.158;2024-02-26T10:36:11;3.63;;;2.57;;
33876;SDS011;20166;51.738;7.158;2024-02-26T10:39:01;3.03;;;2.20;;
33876;SDS011;20166;51.738;7.158;2024-02-26T10:41:47;3.27;;;2.50;;
33876;SDS011;20166;51.738;7.158;2024-02-26T10:44:35;2.67;;;2.17;;
33876;SDS011;20166;51.738;7.158;2024-02-26T10:47:21;7.70;;;3.20;;
33876;SDS011;20166;51.738;7.158;2024-02-26T10:50:08;12.77;;;2.33;;
33876;SDS011;20166;51.738;7.158;2024-02-26T10:52:55;3.13;;;2.37;;
33876;SDS011;20166;51.738;7.158;2024-02-26T10:55:43;4.40;;;2.70;;
33876;SDS011;20166;51.738;7.158;2024-02-26T10:58:34;3.93;;;2.77;;
33876;SDS011;20166;51.738;7.158;2024-02-26T11:01:22;3.10;;;2.80;;
33876;SDS011;20166;51.738;7.158;2024-02-26T11:04:10;4.77;;;3.33;;
33876;SDS011;20166;51.738;7.158;2024-02-26T11:06:58;3.37;;;3.07;;
33876;SDS011;20166;51.738;7.158;2024-02-26T11:09:47;4.37;;;2.73;;
33876;SDS011;20166;51.738;7.158;2024-02-26T11:12:37;4.10;;;3.13;;
33876;SDS011;20166;51.738;7.158;2024-02-26T11:15:24;5.13;;;2.90;;
33876;SDS011;20166;51.738;7.158;2024-02-26T11:18:13;4.13;;;2.93;;
33876;SDS011;20166;51.738;7.158;2024-02-26T11:21:01;3.77;;;2.50;;
33876;SDS011;20166;51.738;7.158;2024-02-26T11:23:50;4.40;;;2.90;;
33876;SDS011;20166;51.738;7.158;2024-02-26T11:26:39;4.50;;;2.83;;
33876;SDS011;20166;51.738;7.158;2024-02-26T11:29:32;4.00;;;2.93;;
33876;SDS011;20166;51.738;7.158;2024-02-26T11:32:23;4.97;;;3.13;;
33876;SDS011;20166;51.738;7.158;2024-02-26T11:35:12;4.70;;;3.00;;
33876;SDS011;20166;51.738;7.158;2024-02-26T11:38:00;3.73;;;2.67;;
33876;SDS011;20166;51.738;7.158;2024-02-26T11:40:46;3.80;;;3.30;;
33876;SDS011;20166;51.738;7.158;2024-02-26T11:46:38;5.03;;;2.37;;
33876;SDS011;20166;51.738;7.158;2024-02-26T11:49:29;4.30;;;2.90;;
33876;SDS011;20166;51.738;7.158;2024-02-26T11:52:20;4.93;;;3.00;;
33876;SDS011;20166;51.738;7.158;2024-02-26T11:55:06;4.33;;;3.47;;
33876;SDS011;20166;51.738;7.158;2024-02-26T11:57:54;4.20;;;2.47;;
33876;SDS011;20166;51.738;7.158;2024-02-26T12:00:41;3.73;;;2.63;;
33876;SDS011;20166;51.738;7.158;2024-02-26T12:03:28;3.90;;;2.60;;
33876;SDS011;20166;51.738;7.158;2024-02-26T12:06:14;4.87;;;3.40;;
33876;SDS011;20166;51.738;7.158;2024-02-26T12:09:03;2.93;;;2.33;;
33876;SDS011;20166;51.738;7.158;2024-02-26T12:11:51;3.13;;;2.80;;
33876;SDS011;20166;51.738;7.158;2024-02-26T12:14:38;3.30;;;2.37;;
33876;SDS011;20166;51.738;7.158;2024-02-26T12:17:25;4.70;;;3.27;;
33876;SDS011;20166;51.738;7.158;2024-02-26T12:20:12;4.03;;;2.50;;
33876;SDS011;20166;51.738;7.158;2024-02-26T12:23:00;3.50;;;2.87;;
33876;SDS011;20166;51.738;7.158;2024-02-26T12:25:50;2.80;;;2.00;;
33876;SDS011;20166;51.738;7.158;2024-02-26T12:28:37;5.50;;;2.70;;
33876;SDS011;20166;51.738;7.158;2024-02-26T12:31:23;6.87;;;3.10;;
33876;SDS011;20166;51.738;7.158;2024-02-26T12:34:10;2.77;;;2.37;;
33876;SDS011;20166;51.738;7.158;2024-02-26T12:36:56;2.43;;;2.20;;
33876;SDS011;20166;51.738;7.158;2024-02-26T12:39:43;2.50;;;2.30;;
33876;SDS011;20166;51.738;7.158;2024-02-26T12:42:32;4.90;;;2.60;;
33876;SDS011;20166;51.738;7.158;2024-02-26T12:45:24;2.60;;;2.10;;
33876;SDS011;20166;51.738;7.158;2024-02-26T12:48:13;3.83;;;2.43;;
33876;SDS011;20166;51.738;7.158;2024-02-26T12:50:59;4.83;;;2.53;;
33876;SDS011;20166;51.738;7.158;2024-02-26T12:53:46;3.00;;;2.60;;
33876;SDS011;20166;51.738;7.158;2024-02-26T12:56:34;3.37;;;2.10;;
33876;SDS011;20166;51.738;7.158;2024-02-26T12:59:23;2.30;;;2.00;;
33876;SDS011;20166;51.738;7.158;2024-02-26T13:02:09;4.27;;;2.50;;
33876;SDS011;20166;51.738;7.158;2024-02-26T13:04:56;3.13;;;2.20;;
33876;SDS011;20166;51.738;7.158;2024-02-26T13:07:46;2.67;;;2.10;;
33876;SDS011;20166;51.738;7.158;2024-02-26T13:10:32;2.50;;;2.30;;
33876;SDS011;20166;51.738;7.158;2024-02-26T13:13:19;5.33;;;2.40;;
33876;SDS011;20166;51.738;7.158;2024-02-26T13:16:09;3.63;;;2.43;;
33876;SDS011;20166;51.738;7.158;2024-02-26T13:19:07;3.20;;;2.57;;
33876;SDS011;20166;51.738;7.158;2024-02-26T13:21:56;2.57;;;2.10;;
33876;SDS011;20166;51.738;7.158;2024-02-26T13:24:55;4.00;;;2.40;;
33876;SDS011;20166;51.738;7.158;2024-02-26T13:27:42;2.53;;;2.33;;
33876;SDS011;20166;51.738;7.158;2024-02-26T13:30:28;3.20;;;2.50;;
33876;SDS011;20166;51.738;7.158;2024-02-26T13:33:16;2.97;;;2.50;;
33876;SDS011;20166;51.738;7.158;2024-02-26T13:36:03;2.57;;;1.90;;
33876;SDS011;20166;51.738;7.158;2024-02-26T13:38:53;3.17;;;2.40;;
33876;SDS011;20166;51.738;7.158;2024-02-26T13:41:40;5.40;;;2.27;;
33876;SDS011;20166;51.738;7.158;2024-02-26T13:44:28;4.50;;;2.60;;
33876;SDS011;20166;51.738;7.158;2024-02-26T13:47:15;2.63;;;2.43;;
33876;SDS011;20166;51.738;7.158;2024-02-26T13:50:03;2.13;;;1.93;;
33876;SDS011;20166;51.738;7.158;2024-02-26T13:52:50;2.37;;;2.17;;
33876;SDS011;20166;51.738;7.158;2024-02-26T13:55:39;2.53;;;2.23;;
33876;SDS011;20166;51.738;7.158;2024-02-26T13:58:27;5.23;;;2.17;;
33876;SDS011;20166;51.738;7.158;2024-02-26T14:01:14;4.33;;;2.20;;
33876;SDS011;20166;51.738;7.158;2024-02-26T14:04:01;3.23;;;2.10;;
33876;SDS011;20166;51.738;7.158;2024-02-26T14:06:51;4.17;;;2.40;;
33876;SDS011;20166;51.738;7.158;2024-02-26T14:09:37;5.77;;;2.40;;
33876;SDS011;20166;51.738;7.158;2024-02-26T14:12:33;5.30;;;2.50;;
33876;SDS011;20166;51.738;7.158;2024-02-26T14:15:20;3.60;;;2.47;;
33876;SDS011;20166;51.738;7.158;2024-02-26T14:18:06;3.13;;;2.40;;
33876;SDS011;20166;51.738;7.158;2024-02-26T14:20:54;3.33;;;2.73;;
33876;SDS011;20166;51.738;7.158;2024-02-26T14:23:42;3.03;;;2.30;;
33876;SDS011;20166;51.738;7.158;2024-02-26T14:26:29;2.20;;;2.00;;
33876;SDS011;20166;51.738;7.158;2024-02-26T14:29:15;4.30;;;2.63;;
33876;SDS011;20166;51.738;7.158;2024-02-26T14:32:03;2.33;;;1.93;;
33876;SDS011;20166;51.738;7.158;2024-02-26T14:34:50;2.87;;;2.10;;
33876;SDS011;20166;51.738;7.158;2024-02-26T14:37:36;4.80;;;2.93;;
33876;SDS011;20166;51.738;7.158;2024-02-26T14:40:24;2.63;;;2.27;;
33876;SDS011;20166;51.738;7.158;2024-02-26T14:43:10;2.87;;;2.10;;
33876;SDS011;20166;51.738;7.158;2024-02-26T14:45:57;2.43;;;2.23;;
33876;SDS011;20166;51.738;7.158;2024-02-26T14:48:44;3.13;;;2.53;;
33876;SDS011;20166;51.738;7.158;2024-02-26T14:51:31;3.67;;;2.40;;
33876;SDS011;20166;51.738;7.158;2024-02-26T14:54:17;3.33;;;2.37;;
33876;SDS011;20166;51.738;7.158;2024-02-26T14:57:05;2.20;;;2.00;;
33876;SDS011;20166;51.738;7.158;2024-02-26T14:59:52;3.90;;;2.43;;
33876;SDS011;20166;51.738;7.158;2024-02-26T15:02:38;4.17;;;3.13;;
33876;SDS011;20166;51.738;7.158;2024-02-26T15:05:25;4.13;;;2.70;;
33876;SDS011;20166;51.738;7.158;2024-02-26T15:08:11;3.80;;;3.03;;
33876;SDS011;20166;51.738;7.158;2024-02-26T15:11:00;4.13;;;2.87;;
33876;SDS011;20166;51.738;7.158;2024-02-26T15:13:49;3.97;;;2.80;;
33876;SDS011;20166;51.738;7.158;2024-02-26T15:16:39;4.27;;;2.67;;
33876;SDS011;20166;51.738;7.158;2024-02-26T15:19:26;4.00;;;3.07;;
33876;SDS011;20166;51.738;7.158;2024-02-26T15:22:13;4.87;;;3.50;;
33876;SDS011;20166;51.738;7.158;2024-02-26T15:24:59;3.47;;;2.60;;
33876;SDS011;20166;51.738;7.158;2024-02-26T15:27:46;3.13;;;2.80;;
33876;SDS011;20166;51.738;7.158;2024-02-26T15:30:34;5.73;;;3.60;;
33876;SDS011;20166;51.738;7.158;2024-02-26T15:33:21;5.70;;;3.13;;
33876;SDS011;20166;51.738;7.158;2024-02-26T15:36:07;3.87;;;3.13;;
33876;SDS011;20166;51.738;7.158;2024-02-26T15:38:57;6.27;;;3.50;;
33876;SDS011;20166;51.738;7.158;2024-02-26T15:41:44;6.10;;;3.77;;
33876;SDS011;20166;51.738;7.158;2024-02-26T15:44:30;6.97;;;3.90;;
33876;SDS011;20166;51.738;7.158;2024-02-26T15:47:18;6.10;;;3.40;;
33876;SDS011;20166;51.738;7.158;2024-02-26T15:50:05;6.53;;;3.17;;
33876;SDS011;20166;51.738;7.158;2024-02-26T15:52:52;5.70;;;3.67;;
33876;SDS011;20166;51.738;7.158;2024-02-26T15:55:39;3.50;;;3.03;;
33876;SDS011;20166;51.738;7.158;2024-02-26T15:58:27;5.23;;;3.43;;
33876;SDS011;20166;51.738;7.158;2024-02-26T16:01:13;4.07;;;2.87;;
33876;SDS011;20166;51.738;7.158;2024-02-26T16:04:10;3.57;;;3.07;;
33876;SDS011;20166;51.738;7.158;2024-02-26T16:06:58;6.40;;;4.03;;
33876;SDS011;20166;51.738;7.158;2024-02-26T16:09:50;5.20;;;2.73;;
33876;SDS011;20166;51.738;7.158;2024-02-26T16:12:37;6.50;;;3.10;;
33876;SDS011;20166;51.738;7.158;2024-02-26T16:15:27;4.50;;;2.80;;
33876;SDS011;20166;51.738;7.158;2024-02-26T16:18:15;4.53;;;3.03;;
33876;SDS011;20166;51.738;7.158;2024-02-26T16:21:03;5.77;;;3.23;;
33876;SDS011;20166;51.738;7.158;2024-02-26T16:23:50;4.00;;;2.57;;
33876;SDS011;20166;51.738;7.158;2024-02-26T16:26:36;4.40;;;3.30;;
33876;SDS011;20166;51.738;7.158;2024-02-26T16:29:23;5.10;;;3.47;;
33876;SDS011;20166;51.738;7.158;2024-02-26T16:32:09;4.53;;;2.77;;
33876;SDS011;20166;51.738;7.158;2024-02-26T16:34:55;4.37;;;2.60;;
33876;SDS011;20166;51.738;7.158;2024-02-26T16:37:44;4.07;;;2.97;;
33876;SDS011;20166;51.738;7.158;2024-02-26T16:40:30;3.63;;;2.90;;
33876;SDS011;20166;51.738;7.158;2024-02-26T16:43:16;5.90;;;3.73;;
33876;SDS011;20166;51.738;7.158;2024-02-26T16:46:03;4.83;;;2.73;;
33876;SDS011;20166;51.738;7.158;2024-02-26T16:48:53;4.40;;;2.90;;
33876;SDS011;20166;51.738;7.158;2024-02-26T16:51:39;4.00;;;3.20;;